메인 페이지
METAR-TAF:

METAR-TAF

공항 :

리마, 페루

호르헤 차베스 국제공항

위도: 12-00S, 경도: 077-07W, 고도: 12m

현재 날씨관측

예보는 57분 전, 18:00시(UTC)에 발표되었습니다.
10kt남남동풍과 남서풍을 오가는
온도 27°C
습도 54%
기압 1013 hPa
시정 10km 이상
1500m 미만 상공 구름 및 적란운 없음

METAR: SPJC 161800Z 18010KT 150V220 CAVOK 27/17 Q1013 NOSIG RMK BIRD HAZARD RWY 15 PP000

시각: 13:57 (18:57 UTC)

예보

예보는 1 시간 57분 전, 17:00시(UTC)에 발표되었습니다.
예보 대상 시간: 16일 18시부터 17일 18시까지 (UTC)
10kt
시정 10km 이상
1500m 미만 상공 구름 및 적란운 없음
전환 중
16일 21시부터 16일 23시까지 (UTC)
고도 1500ft 상공 구름 보통
고도 12000ft 상공 구름 많음
17일 0600시부터 (UTC)
6kt
시정 10km 이상
고도 1400ft 상공 구름 보통
고도 10000ft 상공 구름 많음
전환 중
17일 08시부터 17일 10시까지 (UTC)
시정: 7000m
고도 1200ft 상공 흐림
일시적
17일 10시부터 17일 12시까지 (UTC)
시정: 5000m
고도 600ft 상공 구름 많음
박무

TAF: SPJC 161700Z 1618/1718 18010KT CAVOK TX26/1620Z TN20/1711Z BECMG 1621/1623 SCT015 BKN120 FM170600 17006KT 9999 SCT014 BKN100 BECMG 1708/1710 7000 OVC012 TEMPO 1710/1712 5000 BR BKN006

4,000개 이상의 공항 관측 자료 및 예보 (METAR 및 TAF 보고).

지도상에서 검색 가능한 기상관측소가 노란 점과 빨간 점으로 표시되어 있습니다.

기상관측소 명을 보려면 표시 위로 마우스를 이동하세요.

날씨 관측과 예보를 보려면 클릭하세요.

지도 변경 : 확대하려면 엑스 표시가 있는 녹색 버튼, 축소하려면 빼기 표시가 있는 녹색 버튼, 다음 페이지의 지도를 보려면 녹색 화살표를 클릭하세요.


METAR-TAF: